createdAt,value
2023-03-05T00:00:16.613Z,19.97
2023-03-05T00:00:48.386Z,20.03
2023-03-05T00:01:33.338Z,19.80
2023-03-05T00:02:06.874Z,19.57
2023-03-05T00:02:38.763Z,19.43
2023-03-05T00:03:10.557Z,19.27
2023-03-05T00:03:42.486Z,19.67
2023-03-05T00:04:15.875Z,21.00
2023-03-05T00:04:47.721Z,21.07
2023-03-05T00:05:19.440Z,21.03
2023-03-05T00:05:57.359Z,20.83
2023-03-05T00:06:31.169Z,20.13
2023-03-05T00:07:03.102Z,19.70
2023-03-05T00:07:35.169Z,19.63
2023-03-05T00:08:07.004Z,20.23
2023-03-05T00:08:38.883Z,20.17
2023-03-05T00:09:10.744Z,20.23
2023-03-05T00:09:42.511Z,20.10
2023-03-05T00:10:14.439Z,19.13
2023-03-05T00:10:46.175Z,20.40
2023-03-05T00:11:17.987Z,19.20
2023-03-05T00:11:49.734Z,19.20
2023-03-05T00:12:21.510Z,18.63
2023-03-05T00:12:53.310Z,19.37
2023-03-05T00:13:25.511Z,17.40
2023-03-05T00:13:58.674Z,17.63
2023-03-05T00:14:30.459Z,18.23
2023-03-05T00:15:02.275Z,19.93
2023-03-05T00:15:34.026Z,20.27
2023-03-05T00:16:08.541Z,18.73
2023-03-05T00:16:41.204Z,18.40
2023-03-05T00:17:12.964Z,18.90
2023-03-05T00:17:44.724Z,18.30
2023-03-05T00:18:16.446Z,19.07
2023-03-05T00:18:49.051Z,18.27
2023-03-05T00:19:20.801Z,20.23
2023-03-05T00:19:52.524Z,19.33
2023-03-05T00:20:24.258Z,19.97
2023-03-05T00:20:56.028Z,20.27
2023-03-05T00:21:35.639Z,18.30
2023-03-05T00:22:08.019Z,18.40
2023-03-05T00:22:39.771Z,19.20
2023-03-05T00:23:11.774Z,19.60
2023-03-05T00:23:43.518Z,19.30
2023-03-05T00:24:18.345Z,19.83
2023-03-05T00:24:53.350Z,19.50
2023-03-05T00:25:25.101Z,17.87
2023-03-05T00:25:56.899Z,17.83
2023-03-05T00:26:29.961Z,19.33
2023-03-05T00:27:01.926Z,18.73
2023-03-05T00:27:33.665Z,18.10
2023-03-05T00:28:06.028Z,17.53
2023-03-05T00:28:37.749Z,19.63
2023-03-05T00:29:10.953Z,19.07
2023-03-05T00:29:42.778Z,17.80
2023-03-05T00:30:14.798Z,17.87
2023-03-05T00:30:46.695Z,17.93
2023-03-05T00:31:22.118Z,18.27
2023-03-05T00:31:54.262Z,18.93
2023-03-05T00:32:26.265Z,17.07
2023-03-05T00:32:58.465Z,17.83
2023-03-05T00:33:30.199Z,17.83
2023-03-05T00:34:06.469Z,18.33
2023-03-05T00:34:38.250Z,18.90
2023-03-05T00:35:10.370Z,18.07
2023-03-05T00:35:44.824Z,17.80
2023-03-05T00:36:16.721Z,16.47
2023-03-05T00:36:52.485Z,16.80
2023-03-05T00:37:24.243Z,16.73
2023-03-05T00:37:56.426Z,17.70
2023-03-05T00:38:28.253Z,16.80
2023-03-05T00:39:00.346Z,17.37
2023-03-05T00:39:32.183Z,18.47
2023-03-05T00:40:04.859Z,18.67
2023-03-05T00:40:38.100Z,18.33
2023-03-05T00:41:09.916Z,18.53
2023-03-05T00:41:41.710Z,17.67
2023-03-05T00:42:13.498Z,18.67
2023-03-05T00:42:45.245Z,17.53
2023-03-05T00:43:17.110Z,16.63
2023-03-05T00:43:49.177Z,16.87
2023-03-05T00:44:21.455Z,17.70
2023-03-05T00:44:53.246Z,17.83
2023-03-05T00:45:25.008Z,19.13
2023-03-05T00:45:56.859Z,18.53
2023-03-05T00:46:28.677Z,18.20
2023-03-05T00:47:00.516Z,17.80
2023-03-05T00:47:32.744Z,16.83
2023-03-05T00:48:04.884Z,16.77
2023-03-05T00:48:36.779Z,16.63
2023-03-05T00:49:08.670Z,16.80
2023-03-05T00:49:40.371Z,16.67
2023-03-05T00:50:12.235Z,16.90
2023-03-05T00:50:44.113Z,17.37
2023-03-05T00:51:15.896Z,16.93
2023-03-05T00:51:47.648Z,17.37
2023-03-05T00:52:19.427Z,17.07
2023-03-05T00:52:51.266Z,17.03
2023-03-05T00:53:23.683Z,17.23
2023-03-05T00:53:55.532Z,17.50
2023-03-05T00:54:27.296Z,17.43
2023-03-05T00:54:59.421Z,16.63
2023-03-05T00:55:31.262Z,16.77
2023-03-05T00:56:03.144Z,16.87
2023-03-05T00:56:34.925Z,15.97
2023-03-05T00:57:06.795Z,17.57
2023-03-05T00:57:38.605Z,17.03
2023-03-05T00:58:10.475Z,17.60
2023-03-05T00:58:42.376Z,15.93
2023-03-05T00:59:14.085Z,16.33
2023-03-05T00:59:45.969Z,16.90
2023-03-05T01:00:18.029Z,18.33
2023-03-05T01:00:52.462Z,18.53
2023-03-05T01:01:24.834Z,18.13
2023-03-05T01:01:56.680Z,17.90
2023-03-05T01:02:28.495Z,17.40
2023-03-05T01:03:00.357Z,17.63
2023-03-05T01:03:33.521Z,18.50
2023-03-05T01:04:05.431Z,18.47
2023-03-05T01:04:37.140Z,18.93
2023-03-05T01:05:12.853Z,18.03
2023-03-05T01:05:45.063Z,18.00
2023-03-05T01:06:17.606Z,18.53
2023-03-05T01:06:49.362Z,18.30
2023-03-05T01:07:21.082Z,17.90
2023-03-05T01:07:54.371Z,18.57
2023-03-05T01:08:26.994Z,18.70
2023-03-05T01:08:59.630Z,17.27
2023-03-05T01:09:31.655Z,17.90
2023-03-05T01:10:04.995Z,18.23
2023-03-05T01:10:37.439Z,17.50
2023-03-05T01:11:10.454Z,17.63
2023-03-05T01:11:42.366Z,16.60
2023-03-05T01:12:14.105Z,17.27
2023-03-05T01:12:45.835Z,17.50
2023-03-05T01:13:17.640Z,18.40
2023-03-05T01:13:49.466Z,18.37
2023-03-05T01:14:21.561Z,19.03
2023-03-05T01:14:53.353Z,18.93
2023-03-05T01:15:26.388Z,19.33
2023-03-05T01:15:58.299Z,18.37
2023-03-05T01:16:30.324Z,18.30
2023-03-05T01:17:02.779Z,17.87
2023-03-05T01:17:34.843Z,17.57
2023-03-05T01:18:06.681Z,17.73
2023-03-05T01:18:39.675Z,18.87
2023-03-05T01:19:12.966Z,19.13
2023-03-05T01:19:44.736Z,19.87
2023-03-05T01:20:18.938Z,20.67
2023-03-05T01:20:50.723Z,19.27
2023-03-05T01:21:22.858Z,20.17
2023-03-05T01:21:55.220Z,18.23
2023-03-05T01:22:27.070Z,19.20
2023-03-05T01:23:01.994Z,19.53
2023-03-05T01:23:35.789Z,18.50
2023-03-05T01:24:07.849Z,19.20
2023-03-05T01:24:39.615Z,19.20
2023-03-05T01:25:14.348Z,19.33
2023-03-05T01:25:46.154Z,19.80
2023-03-05T01:26:17.874Z,17.83
2023-03-05T01:26:49.792Z,16.33
2023-03-05T01:27:21.589Z,17.97
2023-03-05T01:27:53.519Z,20.47
2023-03-05T01:28:26.425Z,19.07
2023-03-05T01:28:58.180Z,18.47
2023-03-05T01:29:29.892Z,18.57
2023-03-05T01:30:01.732Z,18.00
2023-03-05T01:30:33.937Z,19.00
2023-03-05T01:31:11.645Z,19.07
2023-03-05T01:31:43.690Z,20.30
2023-03-05T01:32:15.445Z,17.80
2023-03-05T01:32:47.233Z,17.33
2023-03-05T01:33:19.654Z,17.67
2023-03-05T01:33:54.648Z,17.97
2023-03-05T01:34:26.498Z,19.13
2023-03-05T01:34:58.256Z,18.83
2023-03-05T01:35:30.210Z,18.63
2023-03-05T01:36:02.183Z,17.77
2023-03-05T01:36:35.000Z,18.83
2023-03-05T01:37:06.762Z,18.50
2023-03-05T01:37:38.518Z,17.43
2023-03-05T01:38:10.260Z,18.93
2023-03-05T01:38:43.478Z,17.77
2023-03-05T01:39:15.220Z,17.60
2023-03-05T01:39:46.915Z,18.97
2023-03-05T01:40:26.244Z,20.40
2023-03-05T01:40:57.960Z,18.53
2023-03-05T01:41:29.712Z,17.03
2023-03-05T01:42:01.495Z,18.37
2023-03-05T01:42:34.234Z,17.63
2023-03-05T01:43:23.625Z,18.17
2023-03-05T01:43:55.596Z,20.13
2023-03-05T01:44:29.884Z,18.13
2023-03-05T01:45:08.580Z,17.93
2023-03-05T01:46:18.941Z,19.87
2023-03-05T01:46:50.954Z,19.77
2023-03-05T01:47:22.650Z,18.77
2023-03-05T01:47:54.371Z,19.43
2023-03-05T01:48:27.117Z,19.07
2023-03-05T01:49:01.577Z,17.33
2023-03-05T01:49:37.840Z,18.63
2023-03-05T01:50:14.319Z,20.20
2023-03-05T01:50:46.069Z,19.13
2023-03-05T01:51:20.507Z,17.43
2023-03-05T01:52:01.430Z,17.77
2023-03-05T01:52:37.618Z,18.50
2023-03-05T01:53:09.484Z,18.33
2023-03-05T01:53:41.556Z,18.40
2023-03-05T01:54:17.284Z,18.63
2023-03-05T01:55:14.020Z,18.70
2023-03-05T01:55:45.953Z,18.23
2023-03-05T01:56:18.042Z,18.13
2023-03-05T01:56:53.073Z,19.73
2023-03-05T01:57:34.907Z,20.03
2023-03-05T01:58:11.470Z,20.97
2023-03-05T01:58:45.041Z,19.57
2023-03-05T01:59:18.296Z,20.13
2023-03-05T01:59:56.658Z,21.63
2023-03-05T02:00:38.105Z,21.47
2023-03-05T02:01:10.053Z,20.40
2023-03-05T02:01:46.203Z,19.77
2023-03-05T02:02:22.172Z,19.47
2023-03-05T02:02:54.380Z,17.97
2023-03-05T02:03:26.706Z,16.87
2023-03-05T02:03:59.104Z,18.67
2023-03-05T02:04:41.629Z,18.97
2023-03-05T02:05:18.315Z,18.97
2023-03-05T02:05:50.045Z,19.73
2023-03-05T02:06:21.915Z,20.83
2023-03-05T02:06:53.683Z,20.13
2023-03-05T02:07:26.344Z,18.73
2023-03-05T02:08:03.800Z,19.80
2023-03-05T02:08:35.579Z,20.13
2023-03-05T02:09:07.456Z,19.60
2023-03-05T02:09:41.152Z,19.03
2023-03-05T02:10:20.791Z,19.20
2023-03-05T02:10:56.399Z,19.70
2023-03-05T02:11:28.277Z,19.53
2023-03-05T02:12:00.141Z,19.73
2023-03-05T02:12:31.882Z,18.47
2023-03-05T02:13:09.937Z,19.30
2023-03-05T02:13:41.882Z,20.00
2023-03-05T02:14:13.705Z,20.23
2023-03-05T02:14:49.533Z,21.20
2023-03-05T02:15:21.417Z,20.23
2023-03-05T02:15:55.824Z,19.87
2023-03-05T02:16:36.010Z,19.70
2023-03-05T02:17:08.518Z,20.17
2023-03-05T02:17:40.433Z,19.50
2023-03-05T02:18:12.165Z,19.60
2023-03-05T02:18:43.990Z,18.67
2023-03-05T02:19:15.871Z,19.30
2023-03-05T02:19:52.708Z,20.07
2023-03-05T02:20:30.731Z,19.10
2023-03-05T02:21:07.074Z,17.90
2023-03-05T02:21:44.833Z,17.60
2023-03-05T02:22:18.570Z,17.10
2023-03-05T02:22:50.365Z,17.53
2023-03-05T02:23:26.894Z,17.47
2023-03-05T02:23:58.646Z,18.00
2023-03-05T02:24:36.708Z,17.57
2023-03-05T02:25:17.441Z,18.13
2023-03-05T02:25:49.750Z,18.50
2023-03-05T02:26:21.449Z,17.50
2023-03-05T02:26:53.184Z,18.33
2023-03-05T02:27:35.198Z,17.83
2023-03-05T02:28:36.935Z,18.60
2023-03-05T02:29:10.860Z,18.33
2023-03-05T02:29:46.350Z,18.50
2023-03-05T02:30:18.868Z,17.70
2023-03-05T02:30:51.013Z,18.20
2023-03-05T02:31:24.542Z,17.53
2023-03-05T02:31:56.488Z,18.90
2023-03-05T02:32:28.517Z,18.97
2023-03-05T02:33:00.237Z,17.40
2023-03-05T02:33:32.034Z,17.33
2023-03-05T02:34:03.834Z,17.63
2023-03-05T02:34:36.460Z,17.87
2023-03-05T02:35:08.975Z,17.67
2023-03-05T02:35:40.812Z,18.20
2023-03-05T02:36:12.966Z,17.20
2023-03-05T02:36:44.861Z,18.37
2023-03-05T02:37:16.609Z,17.83
2023-03-05T02:37:48.453Z,17.07
2023-03-05T02:38:21.432Z,18.17
2023-03-05T02:38:53.740Z,18.40
2023-03-05T02:39:25.485Z,18.20
2023-03-05T02:39:57.292Z,18.60
2023-03-05T02:40:29.072Z,18.17
2023-03-05T02:41:00.985Z,16.60
2023-03-05T02:41:33.011Z,17.53
2023-03-05T02:42:04.985Z,18.20
2023-03-05T02:42:37.069Z,18.67
2023-03-05T02:43:10.274Z,18.07
2023-03-05T02:43:42.661Z,16.63
2023-03-05T02:44:14.476Z,16.37
2023-03-05T02:44:46.164Z,17.37
2023-03-05T02:45:18.822Z,16.73
2023-03-05T02:45:50.947Z,16.20
2023-03-05T02:46:23.441Z,16.73
2023-03-05T02:46:55.184Z,17.27
2023-03-05T02:47:27.823Z,18.93
2023-03-05T02:47:59.635Z,18.00
2023-03-05T02:48:31.957Z,18.03
2023-03-05T02:49:04.069Z,18.70
2023-03-05T02:49:36.015Z,18.50
2023-03-05T02:50:10.306Z,17.77
2023-03-05T02:50:43.114Z,18.43
2023-03-05T02:51:15.143Z,18.10
2023-03-05T02:51:46.916Z,18.40
2023-03-05T02:52:18.785Z,18.07
2023-03-05T02:52:50.633Z,18.43
2023-03-05T02:53:23.736Z,18.63
2023-03-05T02:53:55.481Z,18.07
2023-03-05T02:54:27.344Z,18.40
2023-03-05T02:54:59.844Z,17.30
2023-03-05T02:55:31.641Z,17.03
2023-03-05T02:56:04.560Z,17.00
2023-03-05T02:56:38.378Z,16.73
2023-03-05T02:57:10.162Z,16.30
2023-03-05T02:57:41.960Z,18.13
2023-03-05T02:58:13.784Z,18.20
2023-03-05T02:58:45.583Z,17.73
2023-03-05T02:59:17.443Z,18.23
2023-03-05T02:59:49.223Z,17.37
2023-03-05T03:00:21.382Z,16.17
2023-03-05T03:00:53.259Z,16.50
2023-03-05T03:01:28.147Z,17.13
2023-03-05T03:01:59.938Z,15.57
2023-03-05T03:02:31.835Z,17.20
2023-03-05T03:03:03.833Z,17.50
2023-03-05T03:03:36.841Z,17.53
2023-03-05T03:04:08.658Z,17.17
2023-03-05T03:04:40.600Z,17.93
2023-03-05T03:05:12.367Z,17.93
2023-03-05T03:05:44.250Z,17.50
2023-03-05T03:06:15.994Z,18.00
2023-03-05T03:06:47.750Z,18.17
2023-03-05T03:07:19.619Z,18.17
2023-03-05T03:07:51.466Z,17.50
2023-03-05T03:08:23.245Z,17.27
2023-03-05T03:08:55.124Z,17.80
2023-03-05T03:09:27.013Z,17.27
2023-03-05T03:09:58.774Z,17.47
2023-03-05T03:10:30.934Z,18.07
2023-03-05T03:11:07.936Z,16.87
2023-03-05T03:11:39.787Z,16.87
2023-03-05T03:12:12.747Z,17.90
2023-03-05T03:12:45.118Z,18.37
2023-03-05T03:13:16.894Z,16.40
2023-03-05T03:13:48.603Z,16.40
2023-03-05T03:14:20.945Z,16.60
2023-03-05T03:14:52.707Z,16.93
2023-03-05T03:15:24.449Z,15.97
2023-03-05T03:16:04.088Z,17.00
2023-03-05T03:16:35.939Z,18.27
2023-03-05T03:17:10.242Z,18.27
2023-03-05T03:17:42.548Z,18.17
2023-03-05T03:18:14.329Z,18.93
2023-03-05T03:18:47.646Z,17.53
2023-03-05T03:19:19.437Z,16.93
2023-03-05T03:19:51.197Z,17.80
2023-03-05T03:20:23.062Z,17.03
2023-03-05T03:20:54.797Z,16.23
2023-03-05T03:21:27.201Z,16.73
2023-03-05T03:21:59.171Z,16.90
2023-03-05T03:22:31.013Z,16.73
2023-03-05T03:23:02.876Z,17.73
2023-03-05T03:23:35.129Z,17.17
2023-03-05T03:24:07.046Z,17.60
2023-03-05T03:24:40.521Z,18.70
2023-03-05T03:25:18.152Z,17.43
2023-03-05T03:25:49.967Z,16.07
2023-03-05T03:26:21.878Z,16.83
2023-03-05T03:26:53.729Z,16.20
2023-03-05T03:27:25.486Z,16.70
2023-03-05T03:27:57.247Z,16.07
2023-03-05T03:28:28.983Z,15.47
2023-03-05T03:29:00.706Z,15.17
2023-03-05T03:29:32.822Z,15.63
2023-03-05T03:30:05.490Z,16.23
2023-03-05T03:30:37.229Z,15.57
2023-03-05T03:31:09.054Z,16.10
2023-03-05T03:31:41.808Z,15.20
2023-03-05T03:32:13.686Z,15.00
2023-03-05T03:32:45.498Z,14.87
2023-03-05T03:33:18.478Z,14.63
2023-03-05T03:33:50.460Z,14.77
2023-03-05T03:34:22.273Z,15.27
2023-03-05T03:34:54.069Z,15.60
2023-03-05T03:35:25.882Z,16.07
2023-03-05T03:35:57.829Z,16.73
2023-03-05T03:36:29.658Z,15.03
2023-03-05T03:37:01.487Z,13.50
2023-03-05T03:37:33.895Z,14.40
2023-03-05T03:38:05.706Z,14.80
2023-03-05T03:38:37.521Z,13.67
2023-03-05T03:39:10.391Z,14.23
2023-03-05T03:39:42.118Z,14.23
2023-03-05T03:40:14.068Z,14.20
2023-03-05T03:40:45.848Z,13.70
2023-03-05T03:41:18.922Z,13.93
2023-03-05T03:41:53.078Z,12.93
2023-03-05T03:42:25.687Z,14.07
2023-03-05T03:42:57.555Z,14.33
2023-03-05T03:43:29.310Z,15.43
2023-03-05T03:44:03.118Z,15.83
2023-03-05T03:44:34.989Z,15.23
2023-03-05T03:45:07.329Z,14.37
2023-03-05T03:45:43.802Z,13.50
2023-03-05T03:46:15.651Z,13.43
2023-03-05T03:46:49.120Z,14.00
2023-03-05T03:47:20.865Z,13.60
2023-03-05T03:47:52.674Z,14.07
2023-03-05T03:48:24.387Z,13.93
2023-03-05T03:48:56.175Z,14.83
2023-03-05T03:49:28.109Z,14.07
2023-03-05T03:49:59.915Z,13.17
2023-03-05T03:50:31.683Z,13.70
2023-03-05T03:51:07.552Z,15.17
2023-03-05T03:51:39.297Z,14.30
2023-03-05T03:52:11.076Z,14.70
2023-03-05T03:52:42.860Z,15.20
2023-03-05T03:53:14.591Z,13.83
2023-03-05T03:53:46.351Z,13.67
2023-03-05T03:54:19.178Z,14.00
2023-03-05T03:54:52.502Z,15.33
2023-03-05T03:55:24.272Z,15.17
2023-03-05T03:55:59.549Z,15.10
2023-03-05T03:56:31.260Z,15.60
2023-03-05T03:57:03.708Z,15.87
2023-03-05T03:57:36.766Z,15.53
2023-03-05T03:58:09.049Z,16.00
2023-03-05T03:58:40.759Z,16.33
2023-03-05T03:59:13.480Z,15.90
2023-03-05T03:59:46.201Z,15.10
2023-03-05T04:00:18.543Z,14.47
2023-03-05T04:00:50.286Z,14.97
2023-03-05T04:01:22.332Z,14.97
2023-03-05T04:01:54.632Z,14.93
2023-03-05T04:02:27.293Z,14.63
2023-03-05T04:02:59.114Z,14.83
2023-03-05T04:03:30.906Z,15.83
2023-03-05T04:04:03.351Z,17.07
2023-03-05T04:04:35.185Z,15.43
2023-03-05T04:05:07.684Z,16.07
2023-03-05T04:05:39.422Z,15.80
2023-03-05T04:06:11.361Z,15.97
2023-03-05T04:06:43.981Z,14.60
2023-03-05T04:07:15.712Z,14.73
2023-03-05T04:07:47.499Z,14.93
2023-03-05T04:08:19.295Z,14.70
2023-03-05T04:08:51.051Z,15.30
2023-03-05T04:09:22.845Z,14.97
2023-03-05T04:09:54.972Z,14.73
2023-03-05T04:10:27.962Z,14.50
2023-03-05T04:11:01.828Z,14.57
2023-03-05T04:11:34.142Z,14.70
2023-03-05T04:12:06.349Z,14.13
2023-03-05T04:12:38.164Z,14.40
2023-03-05T04:13:10.064Z,15.30
2023-03-05T04:13:42.190Z,15.70
2023-03-05T04:14:13.896Z,14.10
2023-03-05T04:14:46.769Z,15.47
2023-03-05T04:15:18.617Z,15.50
2023-03-05T04:15:50.549Z,16.20
2023-03-05T04:16:22.768Z,16.67
2023-03-05T04:16:54.552Z,18.03
2023-03-05T04:17:26.285Z,18.10
2023-03-05T04:17:58.027Z,20.23
2023-03-05T04:18:32.428Z,19.47
2023-03-05T04:19:04.286Z,18.77
2023-03-05T04:19:36.032Z,20.43
2023-03-05T04:20:10.510Z,20.93
2023-03-05T04:20:42.294Z,20.50
2023-03-05T04:21:14.029Z,20.17
2023-03-05T04:21:45.835Z,19.87
2023-03-05T04:22:18.618Z,19.00
2023-03-05T04:22:50.461Z,18.20
2023-03-05T04:23:22.209Z,17.87
2023-03-05T04:23:53.979Z,18.90
2023-03-05T04:24:25.779Z,19.43
2023-03-05T04:24:57.577Z,18.30
2023-03-05T04:25:29.503Z,18.00
2023-03-05T04:26:01.370Z,17.43
2023-03-05T04:26:33.137Z,16.50
2023-03-05T04:27:06.140Z,16.27
2023-03-05T04:27:40.310Z,16.80
2023-03-05T04:28:12.732Z,16.40
2023-03-05T04:28:44.552Z,16.33
2023-03-05T04:29:16.340Z,16.70
2023-03-05T04:29:48.303Z,17.57
2023-03-05T04:30:20.162Z,17.67
2023-03-05T04:30:52.505Z,17.23
2023-03-05T04:31:24.334Z,17.13
2023-03-05T04:31:56.060Z,17.60
2023-03-05T04:32:29.880Z,17.67
2023-03-05T04:33:01.776Z,17.93
2023-03-05T04:33:34.007Z,17.23
2023-03-05T04:34:05.818Z,17.23
2023-03-05T04:34:38.373Z,17.67
2023-03-05T04:35:10.818Z,17.63
2023-03-05T04:35:42.696Z,17.37
2023-03-05T04:36:14.632Z,18.07
2023-03-05T04:36:46.391Z,17.13
2023-03-05T04:37:18.126Z,16.37
2023-03-05T04:37:50.049Z,16.67
2023-03-05T04:38:21.884Z,16.77
2023-03-05T04:38:53.699Z,16.47
2023-03-05T04:39:25.556Z,16.27
2023-03-05T04:39:57.417Z,15.80
2023-03-05T04:40:29.270Z,16.27
2023-03-05T04:41:01.043Z,15.87
2023-03-05T04:41:32.801Z,15.57
2023-03-05T04:42:04.756Z,15.93
2023-03-05T04:42:36.609Z,16.47
2023-03-05T04:43:08.395Z,16.77
2023-03-05T04:43:40.138Z,16.07
2023-03-05T04:44:11.921Z,16.73
2023-03-05T04:44:43.710Z,15.97
2023-03-05T04:45:17.308Z,16.60
2023-03-05T04:45:49.056Z,15.57
2023-03-05T04:46:20.826Z,15.73
2023-03-05T04:46:52.801Z,16.30
2023-03-05T04:47:24.526Z,16.00
2023-03-05T04:47:56.742Z,15.07
2023-03-05T04:48:28.476Z,15.23
2023-03-05T04:49:00.500Z,15.77
2023-03-05T04:49:32.304Z,16.03
2023-03-05T04:50:06.180Z,15.53
2023-03-05T04:50:38.441Z,16.47
2023-03-05T04:51:10.280Z,16.30
2023-03-05T04:51:42.276Z,16.03
2023-03-05T04:52:15.531Z,15.87
2023-03-05T04:52:47.371Z,15.23
2023-03-05T04:53:19.101Z,15.80
2023-03-05T04:53:51.068Z,15.23
2023-03-05T04:54:23.017Z,15.03
2023-03-05T04:54:54.723Z,16.33
2023-03-05T04:55:27.406Z,15.33
2023-03-05T04:56:01.631Z,16.03
2023-03-05T04:56:33.776Z,17.27
2023-03-05T04:57:06.134Z,16.50
2023-03-05T04:57:38.612Z,15.30
2023-03-05T04:58:10.464Z,14.87
2023-03-05T04:58:42.190Z,15.07
2023-03-05T04:59:13.925Z,15.57
2023-03-05T04:59:45.782Z,15.67
2023-03-05T05:00:18.202Z,17.57
2023-03-05T05:00:50.016Z,18.13
2023-03-05T05:01:21.750Z,17.77
2023-03-05T05:01:53.701Z,18.10
2023-03-05T05:02:25.655Z,18.70
2023-03-05T05:02:57.579Z,19.10
2023-03-05T05:03:29.540Z,19.40
2023-03-05T05:04:01.987Z,20.83
2023-03-05T05:04:35.662Z,22.23
2023-03-05T05:05:08.343Z,20.93
2023-03-05T05:05:40.190Z,22.83
2023-03-05T05:06:12.005Z,23.10
2023-03-05T05:06:43.885Z,27.43
2023-03-05T05:07:15.635Z,24.80
2023-03-05T05:07:47.661Z,21.30
2023-03-05T05:08:19.449Z,22.30
2023-03-05T05:08:51.257Z,22.97
2023-03-05T05:09:24.320Z,23.23
2023-03-05T05:09:56.090Z,22.37
2023-03-05T05:10:27.802Z,22.20
2023-03-05T05:11:05.453Z,21.80
2023-03-05T05:11:37.186Z,20.47
2023-03-05T05:12:10.560Z,21.47
2023-03-05T05:12:42.805Z,20.77
2023-03-05T05:13:14.524Z,20.33
2023-03-05T05:13:46.416Z,21.67
2023-03-05T05:14:18.963Z,21.50
2023-03-05T05:14:50.676Z,21.60
2023-03-05T05:15:22.425Z,20.97
2023-03-05T05:15:54.398Z,22.63
2023-03-05T05:16:26.150Z,23.93
2023-03-05T05:16:57.921Z,26.10
2023-03-05T05:17:32.981Z,28.60
2023-03-05T05:18:04.777Z,27.27
2023-03-05T05:18:36.622Z,26.60
2023-03-05T05:19:08.681Z,27.10
2023-03-05T05:19:40.579Z,27.10
2023-03-05T05:20:15.482Z,28.83
2023-03-05T05:20:47.917Z,26.13
2023-03-05T05:21:20.536Z,22.13
2023-03-05T05:21:52.287Z,22.23
2023-03-05T05:22:24.135Z,21.07
2023-03-05T05:22:55.978Z,20.77
2023-03-05T05:23:28.014Z,21.80
2023-03-05T05:23:59.773Z,22.63
2023-03-05T05:24:31.624Z,22.07
2023-03-05T05:25:05.169Z,22.63
2023-03-05T05:25:36.921Z,22.37
2023-03-05T05:26:09.444Z,22.37
2023-03-05T05:26:41.176Z,22.67
2023-03-05T05:27:13.044Z,22.57
2023-03-05T05:27:44.788Z,23.37
2023-03-05T05:28:16.501Z,22.50
2023-03-05T05:28:49.079Z,22.13
2023-03-05T05:29:20.833Z,24.20
2023-03-05T05:29:53.128Z,23.80
2023-03-05T05:30:24.926Z,26.37
2023-03-05T05:30:57.389Z,28.07
2023-03-05T05:31:29.212Z,26.77
2023-03-05T05:32:00.998Z,26.17
2023-03-05T05:32:32.849Z,25.40
2023-03-05T05:33:04.806Z,26.37
2023-03-05T05:33:37.617Z,27.07
2023-03-05T05:34:09.386Z,25.80
2023-03-05T05:34:41.154Z,25.10
2023-03-05T05:35:13.188Z,25.67
2023-03-05T05:35:44.974Z,25.03
2023-03-05T05:36:19.380Z,26.07
2023-03-05T05:36:51.637Z,25.13
2023-03-05T05:37:24.003Z,22.13
2023-03-05T05:37:55.900Z,22.10
2023-03-05T05:38:27.708Z,22.60
2023-03-05T05:38:59.570Z,21.13
2023-03-05T05:39:31.300Z,20.97
2023-03-05T05:40:05.759Z,21.47
2023-03-05T05:40:37.559Z,22.40
2023-03-05T05:41:14.943Z,24.77
2023-03-05T05:41:46.797Z,26.13
2023-03-05T05:42:19.990Z,27.33
2023-03-05T05:42:51.715Z,28.00
2023-03-05T05:43:23.453Z,26.13
2023-03-05T05:43:55.229Z,25.07
2023-03-05T05:44:27.352Z,23.87
2023-03-05T05:44:59.775Z,28.67
2023-03-05T05:45:32.575Z,31.10
2023-03-05T05:46:08.281Z,28.63
2023-03-05T05:46:40.123Z,28.53
2023-03-05T05:47:11.987Z,28.53
2023-03-05T05:47:43.847Z,25.67
2023-03-05T05:48:15.654Z,23.77
2023-03-05T05:48:47.809Z,24.73
2023-03-05T05:49:19.560Z,30.20
2023-03-05T05:49:51.545Z,51.93
2023-03-05T05:50:23.303Z,44.37
2023-03-05T05:50:55.161Z,43.30
2023-03-05T05:51:27.031Z,34.63
2023-03-05T05:51:59.509Z,32.03
2023-03-05T05:52:31.539Z,32.13
2023-03-05T05:53:03.867Z,28.37
2023-03-05T05:53:35.775Z,27.80
2023-03-05T05:54:07.578Z,25.37
2023-03-05T05:54:39.907Z,24.63
2023-03-05T05:55:12.290Z,23.90
2023-03-05T05:55:44.066Z,21.73
2023-03-05T05:56:16.744Z,21.53
2023-03-05T05:56:48.515Z,21.73
2023-03-05T05:57:20.305Z,22.00
2023-03-05T05:57:52.039Z,22.30
2023-03-05T05:58:23.882Z,23.27
2023-03-05T05:58:56.062Z,24.80
2023-03-05T05:59:27.884Z,24.87
2023-03-05T05:59:59.618Z,26.47
2023-03-05T06:00:31.351Z,30.43
2023-03-05T06:01:11.616Z,28.23
2023-03-05T06:01:43.519Z,25.77
2023-03-05T06:02:15.359Z,28.60
2023-03-05T06:02:47.230Z,28.63
2023-03-05T06:03:19.271Z,26.37
2023-03-05T06:03:51.816Z,26.37
2023-03-05T06:04:23.602Z,29.47
2023-03-05T06:04:58.209Z,27.80
2023-03-05T06:05:30.193Z,26.90
2023-03-05T06:06:02.080Z,26.77
2023-03-05T06:06:35.106Z,27.63
2023-03-05T06:07:07.351Z,28.13
2023-03-05T06:07:39.373Z,27.43
2023-03-05T06:08:11.165Z,27.00
2023-03-05T06:08:43.209Z,27.23
2023-03-05T06:09:15.273Z,28.13
2023-03-05T06:09:46.995Z,28.47
2023-03-05T06:10:18.820Z,27.87
2023-03-05T06:10:55.401Z,27.23
2023-03-05T06:11:27.648Z,27.53
2023-03-05T06:11:59.484Z,28.67
2023-03-05T06:12:31.264Z,27.53
2023-03-05T06:13:03.099Z,27.23
2023-03-05T06:13:35.659Z,27.40
2023-03-05T06:14:08.817Z,26.80
2023-03-05T06:14:40.713Z,27.90
2023-03-05T06:15:12.498Z,27.93
2023-03-05T06:15:44.235Z,28.03
2023-03-05T06:16:19.338Z,28.37
2023-03-05T06:16:51.157Z,27.77
2023-03-05T06:17:30.386Z,29.27
2023-03-05T06:18:02.910Z,30.10
2023-03-05T06:18:35.420Z,28.10
2023-03-05T06:19:07.255Z,27.90
2023-03-05T06:19:38.978Z,29.27
2023-03-05T06:20:11.409Z,27.60
2023-03-05T06:20:43.109Z,28.53
2023-03-05T06:21:16.787Z,29.00
2023-03-05T06:21:48.644Z,27.43
2023-03-05T06:22:20.408Z,27.80
2023-03-05T06:22:52.196Z,28.20
2023-03-05T06:23:24.685Z,29.20
2023-03-05T06:23:58.678Z,29.07
2023-03-05T06:24:30.418Z,29.30
2023-03-05T06:25:02.254Z,28.67
2023-03-05T06:25:33.984Z,28.47
2023-03-05T06:26:07.782Z,28.57
2023-03-05T06:26:39.541Z,29.00
2023-03-05T06:27:11.242Z,27.93
2023-03-05T06:27:43.025Z,28.17
2023-03-05T06:28:15.017Z,29.80
2023-03-05T06:28:46.822Z,29.77
2023-03-05T06:29:18.542Z,29.10
2023-03-05T06:29:53.540Z,28.80
2023-03-05T06:30:25.271Z,29.10
2023-03-05T06:31:11.032Z,30.00
2023-03-05T06:31:42.769Z,29.23
2023-03-05T06:32:14.540Z,29.80
2023-03-05T06:32:46.280Z,28.00
2023-03-05T06:33:18.044Z,27.23
2023-03-05T06:33:50.606Z,29.57
2023-03-05T06:34:22.386Z,30.73
2023-03-05T06:34:54.260Z,31.17
2023-03-05T06:35:26.080Z,30.70
2023-03-05T06:35:58.230Z,29.07
2023-03-05T06:36:30.657Z,29.37
2023-03-05T06:37:02.489Z,29.77
2023-03-05T06:37:34.233Z,29.60
2023-03-05T06:38:07.975Z,30.37
2023-03-05T06:38:40.385Z,28.87
2023-03-05T06:39:12.309Z,29.07
2023-03-05T06:39:44.628Z,27.27
2023-03-05T06:40:16.411Z,28.83
2023-03-05T06:40:48.177Z,28.57
2023-03-05T06:41:23.696Z,29.07
2023-03-05T06:41:55.438Z,29.50
2023-03-05T06:42:27.202Z,28.60
2023-03-05T06:42:59.043Z,28.17
2023-03-05T06:43:33.402Z,28.17
2023-03-05T06:44:05.549Z,28.73
2023-03-05T06:44:41.293Z,30.07
2023-03-05T06:45:13.339Z,29.40
2023-03-05T06:45:45.206Z,28.43
2023-03-05T06:46:29.346Z,27.80
2023-03-05T06:47:01.093Z,27.30
2023-03-05T06:47:33.319Z,28.20
2023-03-05T06:48:05.157Z,29.40
2023-03-05T06:48:37.096Z,31.37
2023-03-05T06:49:10.441Z,31.07
2023-03-05T06:49:42.355Z,27.00
2023-03-05T06:50:14.239Z,26.07
2023-03-05T06:50:46.060Z,26.47
2023-03-05T06:51:24.803Z,29.23
2023-03-05T06:51:56.544Z,26.80
2023-03-05T06:52:28.284Z,27.87
2023-03-05T06:53:00.097Z,27.83
2023-03-05T06:53:32.190Z,28.60
2023-03-05T06:54:08.318Z,27.57
2023-03-05T06:54:40.465Z,28.37
2023-03-05T06:55:12.284Z,29.80
2023-03-05T06:55:44.034Z,30.33
2023-03-05T06:56:16.873Z,28.50
2023-03-05T06:56:48.750Z,27.73
2023-03-05T06:57:20.507Z,28.10
2023-03-05T06:57:52.241Z,27.77
2023-03-05T06:58:24.323Z,28.63
2023-03-05T06:58:56.546Z,28.60
2023-03-05T06:59:28.319Z,29.13
2023-03-05T07:00:00.117Z,28.30
2023-03-05T07:00:31.916Z,28.07
2023-03-05T07:01:06.652Z,28.37
2023-03-05T07:01:38.479Z,29.53